Time;durP1;ratioP1;P1;durP2;ratioP2;P2;SDS_P1;SDS_P2;PMS_P1;PMS_P2;Temp;Humidity;BMP_temperature;BMP_pressure;BME280_temperature;BME280_humidity;BME280_pressure;Samples;Min_cycle;Max_cycle;Signal;HPM_P1;HPM_P2
2023/01/31 00:01:17;;;;;;;18.02;6.10;;;0.80;99.90;;;;;;4932314;29;20036;-73
2023/01/31 00:03:42;;;;;;;10.93;5.07;;;0.70;99.90;;;;;;4947993;28;20043;-73
2023/01/31 00:06:17;;;;;;;15.25;5.68;;;0.70;99.90;;;;;;4944277;29;20046;-73
2023/01/31 00:08:43;;;;;;;14.27;6.32;;;0.70;99.90;;;;;;4925106;29;20451;-73
2023/01/31 00:11:10;;;;;;;16.05;7.45;;;0.60;99.90;;;;;;4923635;29;20286;-73
2023/01/31 00:13:36;;;;;;;17.33;7.25;;;0.70;99.90;;;;;;4941542;29;20431;-73
2023/01/31 00:16:02;;;;;;;15.65;6.75;;;0.70;99.90;;;;;;4943499;29;20038;-73
2023/01/31 00:18:28;;;;;;;17.38;7.18;;;0.70;99.90;;;;;;4944259;29;20024;-74
2023/01/31 00:20:53;;;;;;;17.40;6.18;;;0.70;99.90;;;;;;4943758;29;20491;-73
2023/01/31 00:23:19;;;;;;;24.00;7.25;;;0.80;99.90;;;;;;4940442;28;20101;-73
2023/01/31 00:25:44;;;;;;;11.43;5.85;;;0.80;99.90;;;;;;4937997;28;20035;-73
2023/01/31 00:28:10;;;;;;;8.75;5.32;;;0.80;99.90;;;;;;4943667;29;20427;-73
2023/01/31 00:30:36;;;;;;;16.38;6.75;;;0.80;99.90;;;;;;4942092;29;20042;-73
2023/01/31 00:33:01;;;;;;;18.92;6.53;;;0.80;99.90;;;;;;4943146;29;20035;-73
2023/01/31 00:35:27;;;;;;;16.20;7.55;;;0.80;99.90;;;;;;4943745;28;20503;-73
2023/01/31 00:37:53;;;;;;;17.00;8.07;;;0.80;99.90;;;;;;4941248;29;20035;-73
2023/01/31 00:40:18;;;;;;;22.02;8.23;;;0.80;99.90;;;;;;4942978;29;20479;-73
2023/01/31 00:42:44;;;;;;;17.80;7.32;;;0.90;99.90;;;;;;4929906;29;20023;-73
2023/01/31 00:45:10;;;;;;;16.80;8.65;;;0.80;99.90;;;;;;4941978;28;20114;-73
2023/01/31 00:47:36;;;;;;;20.02;7.68;;;0.80;99.90;;;;;;4940270;29;20030;-73
2023/01/31 00:50:03;;;;;;;14.65;6.90;;;0.80;99.90;;;;;;4943057;28;20081;-73
2023/01/31 00:52:29;;;;;;;18.42;7.10;;;0.70;99.90;;;;;;4934574;29;20031;-73
2023/01/31 00:54:54;;;;;;;20.63;7.60;;;0.70;99.90;;;;;;4928645;28;20410;-73
2023/01/31 00:57:20;;;;;;;14.48;7.65;;;0.70;99.90;;;;;;4941659;29;20035;-73
2023/01/31 00:59:45;;;;;;;18.00;7.70;;;0.70;99.90;;;;;;4936357;29;20023;-73
2023/01/31 01:02:11;;;;;;;18.10;7.00;;;0.80;99.90;;;;;;4943052;28;20055;-74
2023/01/31 01:04:37;;;;;;;17.75;7.10;;;0.80;99.90;;;;;;4934435;29;20030;-74
2023/01/31 01:07:02;;;;;;;16.65;7.38;;;0.80;99.90;;;;;;4936460;29;20511;-73
2023/01/31 01:09:28;;;;;;;14.73;7.05;;;0.70;99.90;;;;;;4943216;28;20031;-73
2023/01/31 01:11:53;;;;;;;16.08;6.38;;;0.70;99.90;;;;;;4943290;29;20202;-73
2023/01/31 01:14:19;;;;;;;13.50;6.18;;;0.70;99.90;;;;;;4941794;29;20023;-73
2023/01/31 01:16:45;;;;;;;17.55;6.78;;;0.70;99.90;;;;;;4933507;29;20108;-73
2023/01/31 01:19:17;;;;;;;20.20;6.88;;;0.60;99.90;;;;;;4941124;28;20130;-73
2023/01/31 01:21:43;;;;;;;16.35;6.80;;;0.70;99.90;;;;;;4927429;29;20123;-73
2023/01/31 01:24:15;;;;;;;17.15;6.53;;;0.70;99.90;;;;;;4938151;28;20378;-73
2023/01/31 01:26:41;;;;;;;16.67;7.20;;;0.80;99.90;;;;;;4939657;28;20031;-73
2023/01/31 01:29:08;;;;;;;17.60;6.90;;;0.80;99.90;;;;;;4943066;28;20073;-73
2023/01/31 01:31:34;;;;;;;18.23;7.20;;;0.90;99.90;;;;;;4939704;29;20071;-73
2023/01/31 01:34:04;;;;;;;16.95;6.93;;;0.90;99.90;;;;;;4923420;29;20024;-73
2023/01/31 01:36:33;;;;;;;22.88;7.68;;;1.00;99.90;;;;;;4935751;29;20114;-73
2023/01/31 01:38:58;;;;;;;17.25;8.05;;;1.10;99.90;;;;;;4931637;29;20034;-73
2023/01/31 01:41:24;;;;;;;22.45;7.05;;;1.30;99.90;;;;;;4927819;29;20487;-73
2023/01/31 01:43:53;;;;;;;19.90;8.27;;;1.30;99.90;;;;;;4941554;28;20110;-73
2023/01/31 01:46:35;;;;;;;19.20;7.05;;;1.40;99.90;;;;;;4941816;29;20035;-73
2023/01/31 01:49:22;;;;;;;18.60;7.18;;;1.50;99.90;;;;;;4933078;29;20074;-73
2023/01/31 01:51:50;;;;;;;19.75;6.93;;;1.50;99.90;;;;;;4942790;29;20074;-73
2023/01/31 01:54:20;;;;;;;21.73;7.82;;;1.60;99.90;;;;;;4942184;29;20031;-73
2023/01/31 01:56:51;;;;;;;22.98;7.68;;;1.60;99.90;;;;;;4939617;28;20034;-73
2023/01/31 01:59:25;;;;;;;12.18;6.68;;;1.70;99.90;;;;;;4941332;28;20490;-73
2023/01/31 02:01:54;;;;;;;14.60;6.70;;;1.70;99.90;;;;;;4937198;29;20060;-73
2023/01/31 02:04:24;;;;;;;19.58;8.10;;;1.80;99.90;;;;;;4922847;29;20122;-74
2023/01/31 02:06:51;;;;;;;21.98;7.47;;;1.80;99.90;;;;;;4934390;28;20067;-74
2023/01/31 02:09:30;;;;;;;18.08;8.90;;;1.70;99.90;;;;;;4945821;29;20027;-73
2023/01/31 02:11:57;;;;;;;13.57;6.78;;;1.70;99.90;;;;;;4943148;29;20483;-74
2023/01/31 02:14:23;;;;;;;16.13;7.03;;;1.70;99.90;;;;;;4944656;28;20498;-73
2023/01/31 02:16:49;;;;;;;19.15;7.47;;;1.80;99.90;;;;;;4944417;29;20094;-73
2023/01/31 02:19:28;;;;;;;19.08;7.53;;;1.70;99.90;;;;;;4946006;29;20031;-73
2023/01/31 02:22:14;;;;;;;16.58;6.80;;;1.70;99.90;;;;;;4945792;28;20050;-73
2023/01/31 02:25:21;;;;;;;18.50;7.22;;;1.70;99.90;;;;;;4943844;29;20363;-73
2023/01/31 02:28:33;;;;;;;18.98;7.90;;;1.70;99.90;;;;;;4943309;28;20039;-73
2023/01/31 02:31:48;;;;;;;24.17;6.97;;;1.70;99.90;;;;;;4935196;29;20470;-73
2023/01/31 02:34:21;;;;;;;19.33;6.45;;;1.70;99.90;;;;;;4846880;29;20193;-73
2023/01/31 02:37:06;;;;;;;16.02;7.30;;;1.70;99.90;;;;;;4848105;29;20093;-73
2023/01/31 02:39:44;;;;;;;13.50;6.60;;;1.70;99.90;;;;;;4904826;29;20047;-73
2023/01/31 02:42:30;;;;;;;15.90;6.47;;;1.70;99.90;;;;;;4938104;29;20419;-73
2023/01/31 02:44:59;;;;;;;15.02;5.97;;;1.80;99.90;;;;;;4944969;28;20043;-73
2023/01/31 02:47:43;;;;;;;14.93;7.03;;;1.70;99.90;;;;;;4945132;29;20032;-73
2023/01/31 02:50:15;;;;;;;19.98;7.20;;;1.80;99.90;;;;;;4933583;29;20380;-73
2023/01/31 02:52:57;;;;;;;17.95;7.65;;;1.70;99.90;;;;;;4942787;29;20496;-73
2023/01/31 02:58:28;;;;;;;13.25;6.88;;;1.70;99.90;;;;;;4935004;29;20042;-73
2023/01/31 03:00:58;;;;;;;11.32;6.05;;;1.80;99.90;;;;;;4926458;29;20495;-73
2023/01/31 03:03:30;;;;;;;14.07;6.53;;;1.90;99.90;;;;;;4939871;29;20298;-73
2023/01/31 03:06:23;;;;;;;18.48;6.47;;;1.80;99.90;;;;;;4927610;29;20036;-73
2023/01/31 03:09:27;;;;;;;19.13;6.68;;;1.90;99.90;;;;;;4941258;28;20035;-73
2023/01/31 03:12:18;;;;;;;14.30;6.07;;;1.90;99.90;;;;;;4934631;29;20047;-73
2023/01/31 03:14:59;;;;;;;14.50;7.05;;;1.90;99.90;;;;;;4939417;29;20514;-73
2023/01/31 03:17:39;;;;;;;21.58;6.72;;;1.90;99.90;;;;;;4942783;28;20406;-73
2023/01/31 03:20:05;;;;;;;15.05;6.15;;;1.90;99.90;;;;;;4942184;29;20043;-73
2023/01/31 03:22:36;;;;;;;19.85;6.60;;;1.80;99.90;;;;;;4943290;28;20082;-73
2023/01/31 03:25:04;;;;;;;13.35;6.15;;;1.80;99.90;;;;;;4940935;29;20033;-73
2023/01/31 03:27:30;;;;;;;15.43;6.70;;;1.70;99.90;;;;;;4942053;29;20050;-73
2023/01/31 03:30:01;;;;;;;14.77;6.50;;;1.60;99.90;;;;;;4942951;28;20490;-73
2023/01/31 03:32:38;;;;;;;12.07;6.28;;;1.50;99.90;;;;;;4931566;29;20035;-73
2023/01/31 03:35:05;;;;;;;14.80;6.28;;;1.50;99.90;;;;;;4939893;29;20195;-73
2023/01/31 03:37:55;;;;;;;16.60;6.93;;;1.40;99.90;;;;;;4937937;29;20027;-74
2023/01/31 03:40:29;;;;;;;19.52;6.82;;;1.40;99.90;;;;;;4928883;29;20047;-73
2023/01/31 03:43:12;;;;;;;11.13;5.75;;;1.40;99.90;;;;;;4941623;29;20023;-73
2023/01/31 03:45:57;;;;;;;17.67;6.00;;;1.40;99.90;;;;;;4939865;29;20306;-73
2023/01/31 03:48:27;;;;;;;16.48;6.10;;;1.30;99.90;;;;;;4931309;29;20055;-72
2023/01/31 03:50:57;;;;;;;12.23;5.68;;;1.40;99.90;;;;;;4921278;29;20039;-73
2023/01/31 03:53:31;;;;;;;15.23;5.85;;;1.40;99.90;;;;;;4934097;29;20317;-73
2023/01/31 03:56:01;;;;;;;12.77;6.90;;;1.40;99.90;;;;;;4942072;29;20122;-73
2023/01/31 03:58:36;;;;;;;15.02;6.50;;;1.50;99.90;;;;;;4942809;28;20063;-73
2023/01/31 04:01:07;;;;;;;21.25;7.10;;;1.60;99.90;;;;;;4940590;28;20077;-73
2023/01/31 04:03:42;;;;;;;13.95;6.07;;;1.80;99.90;;;;;;4942378;29;20062;-72
2023/01/31 04:06:10;;;;;;;19.45;6.78;;;1.90;99.90;;;;;;4926353;29;20181;-73
2023/01/31 04:08:36;;;;;;;16.65;6.60;;;2.10;99.90;;;;;;4939384;29;20074;-73
2023/01/31 04:11:07;;;;;;;15.15;6.38;;;2.20;99.90;;;;;;4941744;29;20122;-73
2023/01/31 04:13:33;;;;;;;12.27;6.10;;;2.30;99.90;;;;;;4942895;29;20042;-73
2023/01/31 04:15:59;;;;;;;12.82;6.03;;;2.40;99.90;;;;;;4942916;29;20256;-73
2023/01/31 04:18:25;;;;;;;16.63;6.20;;;2.50;99.90;;;;;;4942546;29;20171;-73
2023/01/31 04:20:50;;;;;;;18.00;6.50;;;2.60;99.90;;;;;;4932482;28;20091;-73
2023/01/31 04:23:17;;;;;;;15.48;6.07;;;2.60;99.90;;;;;;4935721;29;20046;-73
2023/01/31 04:25:43;;;;;;;12.98;4.80;;;2.70;99.90;;;;;;4936514;29;20196;-73
2023/01/31 04:28:09;;;;;;;17.63;3.92;;;2.90;99.90;;;;;;4939048;29;20121;-73
2023/01/31 04:30:34;;;;;;;11.95;3.55;;;2.90;99.90;;;;;;4941947;28;20034;-73
2023/01/31 04:33:00;;;;;;;13.27;2.42;;;3.10;99.90;;;;;;4944029;29;20039;-73
2023/01/31 04:35:25;;;;;;;19.98;2.53;;;3.20;99.90;;;;;;4941772;29;20298;-73
2023/01/31 04:37:51;;;;;;;10.43;2.33;;;3.40;99.90;;;;;;4940835;29;20031;-73
2023/01/31 04:40:17;;;;;;;14.60;2.35;;;3.60;99.90;;;;;;4942278;29;20035;-73
2023/01/31 04:42:42;;;;;;;9.00;1.90;;;3.90;99.90;;;;;;4942142;29;20071;-73
2023/01/31 04:45:09;;;;;;;14.07;2.35;;;4.10;99.90;;;;;;4942246;29;20039;-73
2023/01/31 04:47:34;;;;;;;9.75;2.20;;;4.30;99.90;;;;;;4938475;29;20031;-74
2023/01/31 04:50:00;;;;;;;12.30;2.25;;;4.50;99.90;;;;;;4922602;29;20035;-73
2023/01/31 04:52:25;;;;;;;12.48;2.00;;;4.60;99.90;;;;;;4928752;29;20050;-73
2023/01/31 04:54:51;;;;;;;15.80;2.65;;;4.80;99.90;;;;;;4942586;29;20031;-73
2023/01/31 04:57:17;;;;;;;11.30;1.70;;;4.90;99.90;;;;;;4932364;29;20613;-73
2023/01/31 04:59:42;;;;;;;11.98;2.58;;;5.00;99.90;;;;;;4940406;29;20031;-73
2023/01/31 05:02:08;;;;;;;14.20;2.15;;;5.10;99.90;;;;;;4936724;29;20521;-73
2023/01/31 05:04:33;;;;;;;13.35;2.28;;;5.20;99.90;;;;;;4922786;29;20031;-73
2023/01/31 05:06:59;;;;;;;11.75;2.45;;;5.30;99.90;;;;;;4929369;29;20110;-73
2023/01/31 05:09:25;;;;;;;10.15;2.03;;;5.40;99.90;;;;;;4941531;29;20031;-73
2023/01/31 05:11:51;;;;;;;12.05;1.98;;;5.50;99.90;;;;;;4941493;29;20344;-73
2023/01/31 05:14:17;;;;;;;13.00;2.35;;;5.50;99.90;;;;;;4935578;29;20031;-73
2023/01/31 05:16:46;;;;;;;7.63;1.65;;;5.50;99.90;;;;;;4921371;29;20508;-74
2023/01/31 05:19:14;;;;;;;13.02;1.80;;;5.60;99.90;;;;;;4936246;29;20496;-73
2023/01/31 05:21:58;;;;;;;11.27;2.20;;;5.60;99.90;;;;;;4941230;29;20036;-73
2023/01/31 05:24:27;;;;;;;5.95;1.75;;;5.70;99.90;;;;;;4941036;28;20089;-73
2023/01/31 05:26:57;;;;;;;11.93;1.42;;;5.70;99.90;;;;;;4940777;29;20554;-73
2023/01/31 05:29:26;;;;;;;13.23;2.15;;;5.70;99.90;;;;;;4940498;29;20046;-73
2023/01/31 05:31:53;;;;;;;16.08;2.20;;;5.70;99.90;;;;;;4934493;29;20043;-73
2023/01/31 05:34:18;;;;;;;14.00;1.90;;;5.70;99.90;;;;;;4938120;29;20057;-73
2023/01/31 05:36:45;;;;;;;12.25;2.05;;;5.70;99.90;;;;;;4939018;29;20043;-73
2023/01/31 05:39:10;;;;;;;8.60;1.95;;;5.80;99.90;;;;;;4934645;29;20571;-74
2023/01/31 05:41:36;;;;;;;15.82;2.47;;;5.80;99.90;;;;;;4942299;28;20028;-73
2023/01/31 05:44:01;;;;;;;10.77;2.67;;;5.80;99.90;;;;;;4944447;29;20042;-73
2023/01/31 05:46:27;;;;;;;12.85;2.25;;;5.80;99.90;;;;;;4943981;29;20494;-74
2023/01/31 05:48:53;;;;;;;7.47;1.63;;;5.80;99.90;;;;;;4926261;29;20036;-74
2023/01/31 05:51:18;;;;;;;9.73;2.25;;;5.80;99.90;;;;;;4925561;29;20046;-73
2023/01/31 05:53:44;;;;;;;17.70;1.95;;;5.90;99.90;;;;;;4944400;29;20110;-74
2023/01/31 05:56:09;;;;;;;18.55;2.20;;;5.80;99.90;;;;;;4942552;29;20027;-73
2023/01/31 05:58:35;;;;;;;14.82;2.38;;;5.80;99.90;;;;;;4943081;29;20031;-73
2023/01/31 06:01:01;;;;;;;15.32;1.80;;;5.80;99.90;;;;;;4935739;29;20035;-73
2023/01/31 06:03:26;;;;;;;12.57;1.83;;;5.90;99.90;;;;;;4934028;29;20553;-73
2023/01/31 06:05:52;;;;;;;13.55;2.08;;;5.90;99.90;;;;;;4941677;28;20058;-73
2023/01/31 06:08:18;;;;;;;13.45;1.90;;;5.90;99.90;;;;;;4945354;29;20525;-73
2023/01/31 06:10:43;;;;;;;10.35;1.55;;;5.80;99.90;;;;;;4944651;28;20532;-73
2023/01/31 06:13:09;;;;;;;13.15;2.10;;;5.70;99.90;;;;;;4940708;29;20574;-73
2023/01/31 06:15:36;;;;;;;12.95;2.22;;;5.70;99.90;;;;;;4937375;29;20117;-73
2023/01/31 06:18:02;;;;;;;7.28;2.00;;;5.60;99.90;;;;;;4946392;29;20497;-73
2023/01/31 06:20:28;;;;;;;18.15;1.90;;;5.60;99.90;;;;;;4942291;29;20090;-73
2023/01/31 06:22:54;;;;;;;15.05;1.73;;;5.50;99.90;;;;;;4934816;29;20035;-73
2023/01/31 06:25:19;;;;;;;8.30;2.22;;;5.50;99.90;;;;;;4940716;29;20110;-73
2023/01/31 06:27:45;;;;;;;19.30;2.60;;;5.40;99.90;;;;;;4930652;29;20041;-74
2023/01/31 06:30:11;;;;;;;10.80;1.42;;;5.40;99.90;;;;;;4940665;29;20054;-73
2023/01/31 06:32:36;;;;;;;14.40;1.98;;;5.40;99.90;;;;;;4941752;29;20380;-73
2023/01/31 06:35:03;;;;;;;14.02;1.90;;;5.40;99.90;;;;;;4938043;29;20175;-73
2023/01/31 06:37:28;;;;;;;9.50;1.27;;;5.50;99.90;;;;;;4941151;29;20044;-73
2023/01/31 06:39:54;;;;;;;11.63;1.65;;;5.50;99.90;;;;;;4932760;29;20499;-73
2023/01/31 06:42:20;;;;;;;8.27;1.77;;;5.50;99.90;;;;;;4937819;29;20235;-73
2023/01/31 06:44:45;;;;;;;9.07;1.48;;;5.60;99.90;;;;;;4943108;29;20039;-73
2023/01/31 06:47:11;;;;;;;13.02;2.10;;;5.60;99.90;;;;;;4945069;29;20028;-73
2023/01/31 06:49:37;;;;;;;16.23;1.90;;;5.60;99.90;;;;;;4944320;29;20562;-73
2023/01/31 06:52:03;;;;;;;16.35;2.33;;;5.60;99.90;;;;;;4941306;29;20043;-73
2023/01/31 06:54:29;;;;;;;14.93;3.90;;;5.60;99.90;;;;;;4940740;28;20059;-73
2023/01/31 06:56:54;;;;;;;18.05;4.25;;;5.70;99.90;;;;;;4926014;29;20372;-73
2023/01/31 06:59:20;;;;;;;11.80;2.45;;;5.70;99.90;;;;;;4929731;29;20031;-73
2023/01/31 07:01:46;;;;;;;13.75;1.98;;;5.60;99.90;;;;;;4941881;28;20417;-73
2023/01/31 07:04:11;;;;;;;8.25;1.50;;;5.60;99.90;;;;;;4931193;29;20079;-73
2023/01/31 07:06:37;;;;;;;10.48;1.60;;;5.60;99.90;;;;;;4924176;29;20027;-74
2023/01/31 07:09:03;;;;;;;10.20;2.03;;;5.60;99.90;;;;;;4936163;29;20503;-74
2023/01/31 07:11:28;;;;;;;12.95;2.08;;;5.60;99.90;;;;;;4928193;29;20143;-73
2023/01/31 07:13:54;;;;;;;27.33;9.48;;;5.60;99.90;;;;;;4944329;29;20031;-74
2023/01/31 07:16:21;;;;;;;18.08;4.47;;;5.60;99.90;;;;;;4943138;29;20128;-74
2023/01/31 07:18:47;;;;;;;10.75;2.35;;;5.70;99.90;;;;;;4942957;29;20497;-73
2023/01/31 07:21:12;;;;;;;13.52;1.63;;;5.70;99.90;;;;;;4942559;29;20027;-73
2023/01/31 07:23:38;;;;;;;12.75;1.50;;;5.70;99.90;;;;;;4943768;29;20023;-73
2023/01/31 07:26:04;;;;;;;60.85;21.05;;;5.60;99.90;;;;;;4943082;28;20257;-73
2023/01/31 07:28:30;;;;;;;34.50;10.32;;;5.40;99.90;;;;;;4939909;29;20016;-73
2023/01/31 07:31:03;;;;;;;10.38;3.13;;;5.20;99.90;;;;;;4928448;29;20042;-73
2023/01/31 07:33:29;;;;;;;12.23;2.53;;;5.10;99.90;;;;;;4944208;28;20024;-73
2023/01/31 07:35:54;;;;;;;10.65;1.63;;;4.90;99.90;;;;;;4941043;29;20243;-74
2023/01/31 07:38:20;;;;;;;7.28;1.45;;;4.80;99.90;;;;;;4943612;29;20372;-73
2023/01/31 07:40:45;;;;;;;15.20;3.13;;;4.70;99.90;;;;;;4936099;28;20150;-73
2023/01/31 07:43:11;;;;;;;139.10;54.90;;;4.60;99.90;;;;;;4943964;29;20031;-73
2023/01/31 07:45:38;;;;;;;19.33;6.43;;;4.50;99.90;;;;;;4940821;29;20035;-73
2023/01/31 07:48:05;;;;;;;9.68;2.28;;;4.40;99.90;;;;;;4934780;29;20505;-73
2023/01/31 07:50:31;;;;;;;13.80;2.05;;;4.40;99.90;;;;;;4935496;28;20031;-73
2023/01/31 07:52:57;;;;;;;9.43;1.50;;;4.40;99.90;;;;;;4595888;28;10000585;-73
2023/01/31 07:55:23;;;;;;;16.33;1.98;;;4.40;99.90;;;;;;4938328;29;20035;-73
2023/01/31 07:57:49;;;;;;;11.57;1.55;;;4.40;99.90;;;;;;4936543;29;20041;-73
2023/01/31 08:05:47;;;;;;;12.68;2.50;;;4.60;99.90;;;;;;4926340;28;20043;-73
2023/01/31 08:08:12;;;;;;;11.43;1.83;;;4.80;99.90;;;;;;4927154;29;20150;-73
2023/01/31 08:10:39;;;;;;;15.55;3.78;;;5.00;99.90;;;;;;4921079;29;21184;-73
2023/01/31 08:13:05;;;;;;;11.77;2.75;;;5.20;99.90;;;;;;4934808;29;20578;-73
2023/01/31 08:15:31;;;;;;;9.48;2.45;;;5.40;99.90;;;;;;4935871;29;20043;-73
2023/01/31 08:17:57;;;;;;;9.48;1.92;;;5.60;99.90;;;;;;4924028;29;20102;-73
2023/01/31 08:20:22;;;;;;;12.82;2.60;;;5.90;99.90;;;;;;4934611;28;20235;-73
2023/01/31 08:22:48;;;;;;;8.05;2.47;;;6.00;99.90;;;;;;4939911;28;20073;-73
2023/01/31 08:25:20;;;;;;;9.90;1.67;;;6.20;99.90;;;;;;5072377;28;20467;-73
2023/01/31 08:27:46;;;;;;;13.20;1.85;;;6.50;99.90;;;;;;5046983;28;20057;-73
2023/01/31 08:30:12;;;;;;;14.88;2.08;;;6.70;99.90;;;;;;5059382;28;20952;-73
2023/01/31 08:32:38;;;;;;;14.07;1.65;;;6.90;99.90;;;;;;5059661;28;20040;-72
2023/01/31 08:35:04;;;;;;;22.50;8.30;;;7.20;99.90;;;;;;5068857;28;20024;-73
2023/01/31 08:37:31;;;;;;;20.67;6.05;;;7.50;99.90;;;;;;5066287;28;20126;-73
2023/01/31 08:39:57;;;;;;;5.40;1.60;;;7.70;99.90;;;;;;5066712;28;20078;-73
2023/01/31 08:42:22;;;;;;;11.13;2.63;;;7.90;99.90;;;;;;5039514;28;20456;-73
2023/01/31 08:44:48;;;;;;;10.00;1.65;;;8.00;99.90;;;;;;5062815;28;20115;-73
2023/01/31 08:47:14;;;;;;;10.00;1.88;;;8.10;99.90;;;;;;5065871;28;20101;-73
2023/01/31 08:49:39;;;;;;;8.65;1.40;;;8.20;99.90;;;;;;5056657;28;20028;-73
2023/01/31 08:52:05;;;;;;;8.88;2.42;;;8.30;99.90;;;;;;5066473;28;20465;-73
2023/01/31 08:54:30;;;;;;;31.77;9.35;;;8.40;99.90;;;;;;5034307;28;20173;-72
2023/01/31 08:56:56;;;;;;;8.88;1.55;;;8.70;99.90;;;;;;5050988;28;20347;-73
2023/01/31 08:59:22;;;;;;;8.82;1.70;;;8.80;99.90;;;;;;5056648;28;20041;-73
2023/01/31 09:01:47;;;;;;;10.43;2.05;;;9.30;99.90;;;;;;5047960;28;20103;-73
2023/01/31 09:04:13;;;;;;;8.10;1.50;;;9.70;99.90;;;;;;5047275;28;20041;-73
2023/01/31 09:06:38;;;;;;;13.85;2.15;;;9.80;99.90;;;;;;5031261;28;20471;-73
2023/01/31 09:09:04;;;;;;;6.93;1.52;;;9.90;99.90;;;;;;5043652;28;20037;-73
2023/01/31 09:11:30;;;;;;;7.18;1.38;;;9.60;99.90;;;;;;5042123;28;20040;-73
2023/01/31 09:13:57;;;;;;;11.63;2.20;;;9.50;99.90;;;;;;5050301;28;20444;-74
2023/01/31 09:16:22;;;;;;;13.88;1.85;;;9.20;99.90;;;;;;5043893;28;20036;-73
2023/01/31 09:18:48;;;;;;;12.50;2.20;;;9.20;99.90;;;;;;5033611;28;20036;-73
2023/01/31 09:21:17;;;;;;;11.68;1.65;;;9.10;99.90;;;;;;5040359;28;20577;-73
2023/01/31 09:23:44;;;;;;;8.98;1.42;;;9.00;99.90;;;;;;5046850;28;20044;-71
2023/01/31 09:26:11;;;;;;;11.48;1.80;;;8.80;99.90;;;;;;5052666;28;20082;-71
2023/01/31 09:28:37;;;;;;;10.15;1.30;;;9.00;99.90;;;;;;5047163;28;20033;-72
2023/01/31 09:31:04;;;;;;;6.57;1.50;;;9.90;99.90;;;;;;5048358;28;20031;-74
2023/01/31 09:33:31;;;;;;;12.80;1.65;;;11.10;99.90;;;;;;5062099;28;20115;-74
2023/01/31 09:36:03;;;;;;;10.63;1.73;;;12.20;91.80;;;;;;5043918;28;20706;-73
2023/01/31 09:38:29;;;;;;;7.22;1.00;;;12.50;85.80;;;;;;5036951;28;20033;-74
2023/01/31 09:40:57;;;;;;;14.85;1.88;;;12.10;83.10;;;;;;5039479;28;20523;-73
2023/01/31 09:43:29;;;;;;;10.63;2.10;;;11.20;89.90;;;;;;5032731;28;20132;-72
2023/01/31 09:45:59;;;;;;;12.68;1.58;;;10.60;97.00;;;;;;5034606;28;20029;-72
2023/01/31 09:48:31;;;;;;;7.22;1.05;;;10.20;99.90;;;;;;5041176;28;20024;-73
2023/01/31 09:50:58;;;;;;;8.65;1.90;;;9.90;99.90;;;;;;5045910;28;20065;-72
2023/01/31 09:53:29;;;;;;;7.20;1.63;;;9.60;99.90;;;;;;5054715;28;20060;-72
2023/01/31 09:56:19;;;;;;;6.85;1.30;;;9.30;99.90;;;;;;5063566;28;20032;-73
2023/01/31 09:59:19;;;;;;;11.38;1.67;;;9.00;99.90;;;;;;5029038;28;20435;-71
2023/01/31 10:02:25;;;;;;;7.93;1.33;;;9.00;99.90;;;;;;5023352;28;20088;-72
2023/01/31 10:05:00;;;;;;;11.43;1.50;;;9.10;99.90;;;;;;5019477;28;20676;-72
2023/01/31 10:07:42;;;;;;;8.80;1.30;;;9.30;99.90;;;;;;5024912;28;20475;-73
2023/01/31 10:10:22;;;;;;;10.90;1.45;;;9.40;99.90;;;;;;5030784;28;20073;-73
2023/01/31 10:12:53;;;;;;;13.10;1.83;;;9.60;99.90;;;;;;5018743;28;20029;-71
2023/01/31 10:15:41;;;;;;;;;;;9.70;99.90;;;;;;5025843;28;20046;-72
2023/01/31 10:18:12;;;;;;;11.48;1.65;;;10.00;99.90;;;;;;5025827;28;19921;-72
2023/01/31 10:20:46;;;;;;;23.17;1.95;;;10.00;99.90;;;;;;5031596;28;20056;-72
2023/01/31 10:23:32;;;;;;;8.05;1.60;;;10.10;99.90;;;;;;5026659;28;20543;-72
2023/01/31 10:26:00;;;;;;;9.50;1.35;;;9.90;99.90;;;;;;5017525;28;20422;-72
2023/01/31 10:28:45;;;;;;;6.05;1.42;;;10.10;99.90;;;;;;5020415;28;20041;-72
2023/01/31 10:31:31;;;;;;;8.98;2.10;;;10.20;99.90;;;;;;5023282;28;20033;-72
2023/01/31 10:34:16;;;;;;;11.98;1.77;;;10.30;99.90;;;;;;5026427;28;20033;-71
2023/01/31 10:36:51;;;;;;;9.55;1.67;;;10.30;99.90;;;;;;5029354;28;20079;-71
2023/01/31 10:39:23;;;;;;;8.80;1.60;;;10.50;99.90;;;;;;5038263;28;20033;-72
2023/01/31 10:42:01;;;;;;;12.35;1.77;;;10.50;99.90;;;;;;5043454;28;20036;-73
2023/01/31 10:44:46;;;;;;;7.03;1.70;;;10.60;99.90;;;;;;5038157;28;20049;-71
2023/01/31 10:47:13;;;;;;;10.48;1.55;;;11.00;99.90;;;;;;5038135;28;20017;-73
2023/01/31 10:49:45;;;;;;;12.15;1.65;;;11.10;99.90;;;;;;5032661;28;20040;-73
2023/01/31 10:52:35;;;;;;;8.80;1.55;;;11.20;99.90;;;;;;5032678;28;20369;-73
2023/01/31 10:55:28;;;;;;;8.17;1.97;;;11.20;99.90;;;;;;5027914;28;20515;-72
2023/01/31 10:57:55;;;;;;;11.45;1.63;;;11.10;99.90;;;;;;5044314;28;20048;-70
2023/01/31 11:00:30;;;;;;;5.15;1.50;;;10.70;99.90;;;;;;5038964;28;20098;-71
2023/01/31 11:02:57;;;;;;;12.20;1.63;;;10.60;99.90;;;;;;4674391;27;10000331;-73
2023/01/31 11:05:25;;;;;;;7.85;1.83;;;10.50;99.90;;;;;;5027760;28;20480;-73
2023/01/31 11:07:51;;;;;;;9.52;2.10;;;10.40;99.90;;;;;;5025265;28;20033;-73
2023/01/31 11:10:21;;;;;;;9.32;2.38;;;10.40;99.90;;;;;;5029922;28;20030;-72
2023/01/31 11:13:00;;;;;;;5.53;1.70;;;10.40;99.90;;;;;;5027367;28;20108;-71
2023/01/31 11:15:34;;;;;;;13.00;2.30;;;10.30;99.90;;;;;;5029255;28;20410;-71
2023/01/31 11:18:01;;;;;;;9.07;2.17;;;10.30;99.90;;;;;;5034079;28;20025;-72
2023/01/31 11:20:36;;;;;;;11.30;1.88;;;10.20;99.90;;;;;;5023697;28;20427;-71
2023/01/31 11:23:04;;;;;;;5.63;1.58;;;10.40;99.90;;;;;;5036538;28;20484;-72
2023/01/31 11:25:31;;;;;;;7.43;1.80;;;10.40;99.90;;;;;;5023026;28;20037;-71
2023/01/31 11:28:04;;;;;;;12.40;2.15;;;10.60;99.90;;;;;;5027577;28;20385;-71
2023/01/31 11:30:39;;;;;;;9.80;3.05;;;10.70;99.90;;;;;;5024817;28;20018;-71
2023/01/31 11:33:05;;;;;;;11.18;2.25;;;10.90;99.90;;;;;;5033321;28;20132;-71
2023/01/31 11:35:33;;;;;;;8.82;1.83;;;11.20;99.90;;;;;;5034179;28;20044;-71
2023/01/31 11:38:09;;;;;;;5.50;1.35;;;11.60;99.90;;;;;;5036059;28;20025;-71
2023/01/31 11:40:39;;;;;;;6.70;2.03;;;11.60;99.90;;;;;;5030418;28;20372;-71
2023/01/31 11:43:22;;;;;;;9.68;1.67;;;11.70;99.90;;;;;;5034930;28;20465;-71
2023/01/31 11:46:00;;;;;;;5.40;1.70;;;12.00;99.90;;;;;;5045015;28;20474;-71
2023/01/31 11:48:32;;;;;;;2.53;1.10;;;12.10;99.90;;;;;;5027413;28;20266;-72
2023/01/31 11:51:00;;;;;;;9.13;1.75;;;12.20;99.90;;;;;;5021646;28;20416;-71
2023/01/31 11:53:37;;;;;;;8.18;1.45;;;12.30;99.90;;;;;;5016991;28;20297;-72
2023/01/31 11:56:15;;;;;;;4.88;1.38;;;12.40;99.90;;;;;;5034004;28;20029;-72
2023/01/31 11:58:42;;;;;;;7.85;1.75;;;12.60;99.90;;;;;;5048649;28;20174;-71
2023/01/31 12:01:11;;;;;;;8.57;2.10;;;12.60;99.90;;;;;;5017226;28;20048;-71
2023/01/31 12:03:37;;;;;;;7.60;1.88;;;12.50;99.90;;;;;;5032442;28;20120;-72
2023/01/31 12:06:04;;;;;;;7.45;1.67;;;12.90;98.40;;;;;;5033337;28;20393;-72
2023/01/31 12:08:40;;;;;;;6.57;2.00;;;13.00;93.60;;;;;;5031008;28;20032;-72
2023/01/31 12:11:18;;;;;;;11.32;2.03;;;13.20;94.60;;;;;;5031428;28;20813;-71
2023/01/31 12:13:50;;;;;;;6.57;1.40;;;13.70;92.10;;;;;;5023918;28;20041;-72
2023/01/31 12:16:21;;;;;;;7.68;1.70;;;14.30;92.50;;;;;;5033897;28;20021;-70
2023/01/31 12:18:52;;;;;;;7.75;1.58;;;14.60;82.80;;;;;;5032588;28;20841;-71
2023/01/31 12:21:41;;;;;;;7.30;1.45;;;14.80;80.70;;;;;;5045806;28;20057;-71
2023/01/31 12:24:42;;;;;;;7.32;1.17;;;14.90;77.80;;;;;;5024312;28;20037;-72
2023/01/31 12:27:28;;;;;;;4.88;1.20;;;15.10;80.00;;;;;;5014716;28;20034;-71
2023/01/31 12:30:23;;;;;;;5.13;1.23;;;14.90;76.10;;;;;;5022822;28;20582;-71
2023/01/31 12:33:07;;;;;;;6.20;1.50;;;14.40;82.40;;;;;;4980086;28;20128;-71
2023/01/31 12:35:35;;;;;;;6.43;1.25;;;13.90;83.40;;;;;;5023235;28;20013;-71
2023/01/31 12:38:19;;;;;;;7.30;1.40;;;14.20;89.40;;;;;;5023455;28;20029;-71
2023/01/31 12:41:02;;;;;;;7.47;1.50;;;14.30;84.80;;;;;;5036679;28;20043;-71
2023/01/31 12:43:43;;;;;;;5.07;1.50;;;14.40;82.70;;;;;;5011946;28;20452;-71
2023/01/31 12:46:21;;;;;;;5.83;1.30;;;14.40;84.20;;;;;;5030888;28;20237;-73
2023/01/31 12:49:14;;;;;;;4.68;1.23;;;14.30;86.20;;;;;;5028183;28;20283;-71
2023/01/31 12:51:58;;;;;;;6.15;1.33;;;13.90;87.20;;;;;;5033788;28;20095;-71
2023/01/31 12:54:50;;;;;;;6.10;1.50;;;13.30;91.50;;;;;;5028832;28;20033;-73
2023/01/31 12:57:34;;;;;;;7.90;1.50;;;13.00;96.80;;;;;;5034800;28;20044;-72
2023/01/31 13:00:23;;;;;;;6.07;1.38;;;12.90;95.80;;;;;;5031261;28;20105;-72
2023/01/31 13:03:24;;;;;;;3.55;1.08;;;12.60;99.90;;;;;;5016074;28;20039;-72
2023/01/31 13:05:58;;;;;;;8.98;1.33;;;12.90;99.90;;;;;;4674746;27;9999653;-73
2023/01/31 13:08:30;;;;;;;8.65;1.75;;;13.30;99.40;;;;;;5013648;28;20033;-72
2023/01/31 13:11:13;;;;;;;7.03;1.27;;;13.20;95.00;;;;;;5034222;28;20040;-72
2023/01/31 13:13:55;;;;;;;5.03;1.13;;;13.30;96.10;;;;;;5037995;28;20086;-72
2023/01/31 13:16:28;;;;;;;8.63;1.60;;;13.10;94.40;;;;;;5031888;28;20376;-71